Airfield :
LOGIN :

Register | Disclaimer

   EN    FR    IT 

 










Legend :    VFR   Marginal VFR   IFR   Intensive IFR   Very Intensive IFR
Visi :
Ceiling :
>= 8 km
>= 3000ft
5 to 8 km
1000 to 3000 ft
1500m to 5 km
500 to 1000 ft
800 to 1500m
200 to 500 ft
< 800m
< 200 ft
Symbols :   Thunderstorms  Fog  Heavy snow  Heavy precipitations  Wind > 20 kt
SIGMETs :     Misc.  Thunderstorms  Icing  Turbulence  Mountain Waves  Volcanic Ashes







- Airport Elevation : 267 ft


EGDR - Culdrose Navy

CURRENT METAR :
  • 161450Z 27024G43KT 9999 -SHRA SCT010 FEW018CB SCT020 07/05 Q1001 GRN TEMPO 2000 +SHRAGS SCT005 BKN018CB YLO2

EXPIRED METARs :
  • 161350Z 27018G33KT 3500 +SHRA FEW007 SCT010 BKN018CB 07/05 Q1002 YLO1 TEMPO 2000 +SHRAGS SCT005 BKN018CB YLO2
  • 161332Z 28020G36KT 9999 VCSH FEW010 FEW018CB SCT035 06/05 Q1002 RESHRA RESHGS BLU TEMPO 2000 +SHRAGS SCT005 BKN018CB YLO2
  • 161315Z 27024G39KT 4500 SHRA SCT010 BKN020 08/05 Q1002 GRN TEMPO 3000 SHRA SCT006 YLO1
  • 161250Z 27025G43KT 9999 VCSH FEW010 SCT035 08/04 Q1002 BLU TEMPO 3000 SHRA SCT006 YLO1

TAF TAF EGDR
Valid from the 16 at 15:00 until the 17 at 00:00 UTC


161442Z 1615/1624 27028G50KT 9999 FEW020
TEMPO 1615/1624 7000 SHRA SCT008
TEMPO 1615/1624 3000 +SHRA SCT006 BKN014CB
TEMPO 1615/1624 2000 +SHRAGS SCT004 BKN012CB
PROB30
TEMPO 1618/1624 1000 +SHRASN BKN004
No reported NOTAMs for that airfield.
2 SIGMETs reported for the London FIR (EGTT) :
 
Severe turbulence
EGTT SIGMET 04 VALID 161500/161900 EGRR
EGTT LONDON FIR SEV TURB FCST WI N5040 E00128 - N5000 W00015 - N4850 W00800 - N5100 W00800 - N5220 W00530 - N5500 W00530 - N5500 W00216 - N5225 W00329 - N5038 W00249 - N5040 E00128 SFC/FL060 STNR NC=
Severe turbulence
EGTT SIGMET 03 VALID 161100/161500 EGRR
EGTT LONDON FIR SEV TURB FCST WI N5000 W00015 - N4850 W00800 - N5100 W00800 - N5220 W00530 - N5500 W00530 - N5500 W00240 - N5041 W00323 - N5100 E00128 - N5040 E00128 - N5000 W00015 SFC/FL060 STNR NC=



MET'MAP, your aeronautical weather chart ! - Copyright ORBIFLY December 2007 - Disclaimer

ORBIFLY MET'MAP TEAM :

Programming & Development : Alexandra Zaïnal
Concept & Development : Baudouin d'Aumeries
Co-Development & Prog : Marc-Olivier Méhu
Technical & hardware support : Manuel Goepfert

Contact : metmap@orbifly.com




SOURCES & CREDITS :

   NOAA